sensor_id;sensor_type;location;lat;lon;timestamp;temperature;humidity
15574;DHT22;7888;46.748;8.102;2023-06-22T00:02:17;27.00;43.90
15574;DHT22;7888;46.748;8.102;2023-06-22T00:04:43;27.00;44.00
15574;DHT22;7888;46.748;8.102;2023-06-22T00:07:09;26.90;44.20
15574;DHT22;7888;46.748;8.102;2023-06-22T00:09:38;26.90;44.20
15574;DHT22;7888;46.748;8.102;2023-06-22T00:12:04;26.80;44.30
15574;DHT22;7888;46.748;8.102;2023-06-22T00:14:30;26.80;44.30
15574;DHT22;7888;46.748;8.102;2023-06-22T00:16:56;26.80;44.40
15574;DHT22;7888;46.748;8.102;2023-06-22T00:19:23;26.70;44.40
15574;DHT22;7888;46.748;8.102;2023-06-22T00:21:50;26.70;44.50
15574;DHT22;7888;46.748;8.102;2023-06-22T00:24:22;26.60;44.70
15574;DHT22;7888;46.748;8.102;2023-06-22T00:26:48;26.60;44.80
15574;DHT22;7888;46.748;8.102;2023-06-22T00:29:14;26.60;44.80
15574;DHT22;7888;46.748;8.102;2023-06-22T00:31:41;26.50;44.80
15574;DHT22;7888;46.748;8.102;2023-06-22T00:34:06;26.50;45.00
15574;DHT22;7888;46.748;8.102;2023-06-22T00:36:34;26.40;44.90
15574;DHT22;7888;46.748;8.102;2023-06-22T00:39:00;26.40;44.90
15574;DHT22;7888;46.748;8.102;2023-06-22T00:41:26;26.40;45.20
15574;DHT22;7888;46.748;8.102;2023-06-22T00:43:56;26.30;45.30
15574;DHT22;7888;46.748;8.102;2023-06-22T00:46:22;26.30;45.20
15574;DHT22;7888;46.748;8.102;2023-06-22T00:48:50;26.20;45.20
15574;DHT22;7888;46.748;8.102;2023-06-22T00:51:17;26.20;45.40
15574;DHT22;7888;46.748;8.102;2023-06-22T00:53:50;26.20;45.30
15574;DHT22;7888;46.748;8.102;2023-06-22T00:56:18;26.10;45.20
15574;DHT22;7888;46.748;8.102;2023-06-22T00:58:46;26.10;45.50
15574;DHT22;7888;46.748;8.102;2023-06-22T01:01:13;26.10;45.60
15574;DHT22;7888;46.748;8.102;2023-06-22T01:03:39;26.10;45.60
15574;DHT22;7888;46.748;8.102;2023-06-22T01:06:21;26.00;45.50
15574;DHT22;7888;46.748;8.102;2023-06-22T01:09:00;26.00;45.90
15574;DHT22;7888;46.748;8.102;2023-06-22T01:11:37;26.00;45.80
15574;DHT22;7888;46.748;8.102;2023-06-22T01:14:18;25.90;45.90
15574;DHT22;7888;46.748;8.102;2023-06-22T01:16:50;25.90;45.80
15574;DHT22;7888;46.748;8.102;2023-06-22T01:19:44;25.80;45.60
15574;DHT22;7888;46.748;8.102;2023-06-22T01:22:25;25.80;45.90
15574;DHT22;7888;46.748;8.102;2023-06-22T01:28:03;25.70;45.70
15574;DHT22;7888;46.748;8.102;2023-06-22T01:30:41;25.70;45.70
15574;DHT22;7888;46.748;8.102;2023-06-22T01:33:11;25.70;45.80
15574;DHT22;7888;46.748;8.102;2023-06-22T01:35:39;25.70;45.90
15574;DHT22;7888;46.748;8.102;2023-06-22T01:38:06;25.60;46.20
15574;DHT22;7888;46.748;8.102;2023-06-22T01:40:34;25.60;46.30
15574;DHT22;7888;46.748;8.102;2023-06-22T01:43:02;25.50;46.40
15574;DHT22;7888;46.748;8.102;2023-06-22T01:45:29;25.50;46.40
15574;DHT22;7888;46.748;8.102;2023-06-22T01:47:55;25.50;46.40
15574;DHT22;7888;46.748;8.102;2023-06-22T01:50:21;25.40;46.40
15574;DHT22;7888;46.748;8.102;2023-06-22T01:52:47;25.40;46.30
15574;DHT22;7888;46.748;8.102;2023-06-22T01:55:13;25.40;46.40
15574;DHT22;7888;46.748;8.102;2023-06-22T01:57:39;25.30;46.30
15574;DHT22;7888;46.748;8.102;2023-06-22T02:00:11;25.30;46.50
15574;DHT22;7888;46.748;8.102;2023-06-22T02:02:45;25.30;46.80
15574;DHT22;7888;46.748;8.102;2023-06-22T02:05:16;25.30;46.90
15574;DHT22;7888;46.748;8.102;2023-06-22T02:07:52;25.30;46.60
15574;DHT22;7888;46.748;8.102;2023-06-22T02:10:26;25.20;46.50
15574;DHT22;7888;46.748;8.102;2023-06-22T02:12:54;25.30;46.70
15574;DHT22;7888;46.748;8.102;2023-06-22T02:15:23;25.30;46.90
15574;DHT22;7888;46.748;8.102;2023-06-22T02:17:49;25.20;47.00
15574;DHT22;7888;46.748;8.102;2023-06-22T02:20:15;25.20;46.80
15574;DHT22;7888;46.748;8.102;2023-06-22T02:22:41;25.20;46.90
15574;DHT22;7888;46.748;8.102;2023-06-22T02:25:07;25.20;47.00
15574;DHT22;7888;46.748;8.102;2023-06-22T02:27:33;25.10;47.00
15574;DHT22;7888;46.748;8.102;2023-06-22T02:29:59;25.10;46.90
15574;DHT22;7888;46.748;8.102;2023-06-22T02:32:25;25.10;46.90
15574;DHT22;7888;46.748;8.102;2023-06-22T02:34:51;25.10;47.00
15574;DHT22;7888;46.748;8.102;2023-06-22T02:37:18;25.10;47.00
15574;DHT22;7888;46.748;8.102;2023-06-22T02:39:44;25.00;47.10
15574;DHT22;7888;46.748;8.102;2023-06-22T02:42:10;25.00;47.20
15574;DHT22;7888;46.748;8.102;2023-06-22T02:44:36;25.00;47.10
15574;DHT22;7888;46.748;8.102;2023-06-22T02:47:02;24.90;47.20
15574;DHT22;7888;46.748;8.102;2023-06-22T02:49:29;24.90;47.10
15574;DHT22;7888;46.748;8.102;2023-06-22T02:51:54;24.90;47.10
15574;DHT22;7888;46.748;8.102;2023-06-22T02:54:20;24.90;47.20
15574;DHT22;7888;46.748;8.102;2023-06-22T02:56:46;24.90;47.20
15574;DHT22;7888;46.748;8.102;2023-06-22T02:59:13;24.90;47.10
15574;DHT22;7888;46.748;8.102;2023-06-22T03:01:39;24.90;46.90
15574;DHT22;7888;46.748;8.102;2023-06-22T03:04:06;24.80;46.90
15574;DHT22;7888;46.748;8.102;2023-06-22T03:06:33;24.80;47.20
15574;DHT22;7888;46.748;8.102;2023-06-22T03:09:01;24.80;47.20
15574;DHT22;7888;46.748;8.102;2023-06-22T03:11:30;24.80;47.20
15574;DHT22;7888;46.748;8.102;2023-06-22T03:13:56;24.80;47.30
15574;DHT22;7888;46.748;8.102;2023-06-22T03:16:22;24.80;47.10
15574;DHT22;7888;46.748;8.102;2023-06-22T03:18:48;24.80;47.10
15574;DHT22;7888;46.748;8.102;2023-06-22T03:21:13;24.80;47.30
15574;DHT22;7888;46.748;8.102;2023-06-22T03:23:41;24.80;47.30
15574;DHT22;7888;46.748;8.102;2023-06-22T03:26:08;24.80;47.20
15574;DHT22;7888;46.748;8.102;2023-06-22T03:28:35;24.80;47.10
15574;DHT22;7888;46.748;8.102;2023-06-22T03:31:00;24.80;47.40
15574;DHT22;7888;46.748;8.102;2023-06-22T03:33:26;24.80;47.30
15574;DHT22;7888;46.748;8.102;2023-06-22T03:35:52;24.70;47.20
15574;DHT22;7888;46.748;8.102;2023-06-22T03:38:19;24.80;47.00
15574;DHT22;7888;46.748;8.102;2023-06-22T03:40:45;24.70;47.00
15574;DHT22;7888;46.748;8.102;2023-06-22T03:43:10;24.70;47.20
15574;DHT22;7888;46.748;8.102;2023-06-22T03:45:36;24.70;47.20
15574;DHT22;7888;46.748;8.102;2023-06-22T03:48:02;24.70;47.20
15574;DHT22;7888;46.748;8.102;2023-06-22T03:50:28;24.70;47.30
15574;DHT22;7888;46.748;8.102;2023-06-22T03:52:55;24.60;47.30
15574;DHT22;7888;46.748;8.102;2023-06-22T03:55:21;24.60;47.30
15574;DHT22;7888;46.748;8.102;2023-06-22T03:57:47;24.60;47.30
15574;DHT22;7888;46.748;8.102;2023-06-22T04:00:13;24.60;47.20
15574;DHT22;7888;46.748;8.102;2023-06-22T04:02:41;24.60;47.20
15574;DHT22;7888;46.748;8.102;2023-06-22T04:05:08;24.50;47.40
15574;DHT22;7888;46.748;8.102;2023-06-22T04:07:35;24.50;47.40
15574;DHT22;7888;46.748;8.102;2023-06-22T04:10:05;24.50;47.50
15574;DHT22;7888;46.748;8.102;2023-06-22T04:12:31;24.50;47.70
15574;DHT22;7888;46.748;8.102;2023-06-22T04:14:56;24.40;47.60
15574;DHT22;7888;46.748;8.102;2023-06-22T04:17:22;24.50;47.70
15574;DHT22;7888;46.748;8.102;2023-06-22T04:19:50;24.40;47.70
15574;DHT22;7888;46.748;8.102;2023-06-22T04:22:17;24.40;47.60
15574;DHT22;7888;46.748;8.102;2023-06-22T04:24:43;24.50;47.60
15574;DHT22;7888;46.748;8.102;2023-06-22T04:27:10;24.50;47.50
15574;DHT22;7888;46.748;8.102;2023-06-22T04:29:36;24.50;47.80
15574;DHT22;7888;46.748;8.102;2023-06-22T04:32:01;24.50;47.80
15574;DHT22;7888;46.748;8.102;2023-06-22T04:34:31;24.50;47.90
15574;DHT22;7888;46.748;8.102;2023-06-22T04:36:57;24.50;48.00
15574;DHT22;7888;46.748;8.102;2023-06-22T04:39:23;24.50;48.20
15574;DHT22;7888;46.748;8.102;2023-06-22T04:41:49;24.50;48.20
15574;DHT22;7888;46.748;8.102;2023-06-22T04:44:18;24.60;48.20
15574;DHT22;7888;46.748;8.102;2023-06-22T04:47:01;24.60;48.20
15574;DHT22;7888;46.748;8.102;2023-06-22T04:49:29;24.70;48.30
15574;DHT22;7888;46.748;8.102;2023-06-22T04:52:00;24.70;48.20
15574;DHT22;7888;46.748;8.102;2023-06-22T04:54:28;24.70;48.20
15574;DHT22;7888;46.748;8.102;2023-06-22T04:56:54;24.80;48.00
15574;DHT22;7888;46.748;8.102;2023-06-22T04:59:27;24.80;47.90
15574;DHT22;7888;46.748;8.102;2023-06-22T05:02:02;24.80;47.90
15574;DHT22;7888;46.748;8.102;2023-06-22T05:04:29;24.70;47.80
15574;DHT22;7888;46.748;8.102;2023-06-22T05:06:59;24.80;48.00
15574;DHT22;7888;46.748;8.102;2023-06-22T05:09:26;24.80;48.10
15574;DHT22;7888;46.748;8.102;2023-06-22T05:11:51;24.80;48.20
15574;DHT22;7888;46.748;8.102;2023-06-22T05:14:18;24.80;48.00
15574;DHT22;7888;46.748;8.102;2023-06-22T05:16:45;24.80;48.00
15574;DHT22;7888;46.748;8.102;2023-06-22T05:19:11;24.80;48.00
15574;DHT22;7888;46.748;8.102;2023-06-22T05:21:37;24.80;48.10
15574;DHT22;7888;46.748;8.102;2023-06-22T05:24:04;24.90;48.30
15574;DHT22;7888;46.748;8.102;2023-06-22T05:26:32;24.90;48.40
15574;DHT22;7888;46.748;8.102;2023-06-22T05:29:00;24.90;48.30
15574;DHT22;7888;46.748;8.102;2023-06-22T05:31:27;24.90;48.30
15574;DHT22;7888;46.748;8.102;2023-06-22T05:33:54;25.00;48.30
15574;DHT22;7888;46.748;8.102;2023-06-22T05:36:21;25.10;48.10
15574;DHT22;7888;46.748;8.102;2023-06-22T05:38:51;25.10;48.30
15574;DHT22;7888;46.748;8.102;2023-06-22T05:41:17;25.10;48.20
15574;DHT22;7888;46.748;8.102;2023-06-22T05:43:43;25.10;48.20
15574;DHT22;7888;46.748;8.102;2023-06-22T05:46:09;25.10;48.30
15574;DHT22;7888;46.748;8.102;2023-06-22T05:48:35;25.10;48.30
15574;DHT22;7888;46.748;8.102;2023-06-22T05:51:01;25.10;48.30
15574;DHT22;7888;46.748;8.102;2023-06-22T05:53:27;25.10;48.40
15574;DHT22;7888;46.748;8.102;2023-06-22T05:55:53;25.00;48.40
15574;DHT22;7888;46.748;8.102;2023-06-22T05:58:18;25.00;49.10
15574;DHT22;7888;46.748;8.102;2023-06-22T06:00:44;25.00;48.60
15574;DHT22;7888;46.748;8.102;2023-06-22T06:03:12;25.00;48.60
15574;DHT22;7888;46.748;8.102;2023-06-22T06:05:38;25.00;48.70
15574;DHT22;7888;46.748;8.102;2023-06-22T06:08:05;25.00;49.00
15574;DHT22;7888;46.748;8.102;2023-06-22T06:10:32;25.00;49.30
15574;DHT22;7888;46.748;8.102;2023-06-22T06:12:59;25.10;49.50
15574;DHT22;7888;46.748;8.102;2023-06-22T06:15:30;25.10;49.70
15574;DHT22;7888;46.748;8.102;2023-06-22T06:17:57;25.10;49.90
15574;DHT22;7888;46.748;8.102;2023-06-22T06:20:26;25.20;50.30
15574;DHT22;7888;46.748;8.102;2023-06-22T06:22:54;25.30;50.50
15574;DHT22;7888;46.748;8.102;2023-06-22T06:25:21;25.40;50.40
15574;DHT22;7888;46.748;8.102;2023-06-22T06:27:49;25.40;50.50
15574;DHT22;7888;46.748;8.102;2023-06-22T06:30:17;25.50;50.60
15574;DHT22;7888;46.748;8.102;2023-06-22T06:32:44;25.60;50.10
15574;DHT22;7888;46.748;8.102;2023-06-22T06:35:12;25.70;49.50
15574;DHT22;7888;46.748;8.102;2023-06-22T06:37:42;25.80;49.20
15574;DHT22;7888;46.748;8.102;2023-06-22T06:40:12;25.80;49.00
15574;DHT22;7888;46.748;8.102;2023-06-22T06:42:41;25.90;49.00
15574;DHT22;7888;46.748;8.102;2023-06-22T06:45:20;25.90;48.80
15574;DHT22;7888;46.748;8.102;2023-06-22T06:47:51;26.00;48.30
15574;DHT22;7888;46.748;8.102;2023-06-22T06:50:18;26.10;48.00
15574;DHT22;7888;46.748;8.102;2023-06-22T06:52:44;26.20;47.90
15574;DHT22;7888;46.748;8.102;2023-06-22T06:55:10;26.20;47.80
15574;DHT22;7888;46.748;8.102;2023-06-22T06:57:41;26.20;47.60
15574;DHT22;7888;46.748;8.102;2023-06-22T07:00:09;26.20;47.30
15574;DHT22;7888;46.748;8.102;2023-06-22T07:02:39;26.30;47.10
15574;DHT22;7888;46.748;8.102;2023-06-22T07:05:05;26.30;46.90
15574;DHT22;7888;46.748;8.102;2023-06-22T07:07:32;26.30;46.80
15574;DHT22;7888;46.748;8.102;2023-06-22T07:09:58;26.30;46.90
15574;DHT22;7888;46.748;8.102;2023-06-22T07:12:24;26.40;46.90
15574;DHT22;7888;46.748;8.102;2023-06-22T07:14:51;26.50;46.80
15574;DHT22;7888;46.748;8.102;2023-06-22T07:17:17;26.50;46.80
15574;DHT22;7888;46.748;8.102;2023-06-22T07:19:43;26.60;46.80
15574;DHT22;7888;46.748;8.102;2023-06-22T07:22:09;26.70;46.80
15574;DHT22;7888;46.748;8.102;2023-06-22T07:24:34;26.80;46.90
15574;DHT22;7888;46.748;8.102;2023-06-22T07:27:00;26.80;46.80
15574;DHT22;7888;46.748;8.102;2023-06-22T07:29:27;26.90;47.00
15574;DHT22;7888;46.748;8.102;2023-06-22T07:31:53;26.90;46.80
15574;DHT22;7888;46.748;8.102;2023-06-22T07:34:21;27.00;46.90
15574;DHT22;7888;46.748;8.102;2023-06-22T07:36:47;27.00;46.70
15574;DHT22;7888;46.748;8.102;2023-06-22T07:39:13;27.00;46.40
15574;DHT22;7888;46.748;8.102;2023-06-22T07:41:40;27.00;46.20
15574;DHT22;7888;46.748;8.102;2023-06-22T07:44:06;27.00;46.00
15574;DHT22;7888;46.748;8.102;2023-06-22T07:46:33;27.10;46.00
15574;DHT22;7888;46.748;8.102;2023-06-22T07:48:59;27.10;46.00
15574;DHT22;7888;46.748;8.102;2023-06-22T07:51:25;27.20;45.90
15574;DHT22;7888;46.748;8.102;2023-06-22T07:53:51;27.20;46.00
15574;DHT22;7888;46.748;8.102;2023-06-22T07:56:17;27.30;46.30
15574;DHT22;7888;46.748;8.102;2023-06-22T07:58:46;27.40;46.60
15574;DHT22;7888;46.748;8.102;2023-06-22T08:01:15;27.50;46.60
15574;DHT22;7888;46.748;8.102;2023-06-22T08:03:42;27.60;46.30
15574;DHT22;7888;46.748;8.102;2023-06-22T08:06:09;27.80;46.40
15574;DHT22;7888;46.748;8.102;2023-06-22T08:08:36;27.90;46.30
15574;DHT22;7888;46.748;8.102;2023-06-22T08:11:02;28.00;45.80
15574;DHT22;7888;46.748;8.102;2023-06-22T08:13:28;28.10;45.60
15574;DHT22;7888;46.748;8.102;2023-06-22T08:15:54;28.10;45.20
15574;DHT22;7888;46.748;8.102;2023-06-22T08:18:20;28.10;44.80
15574;DHT22;7888;46.748;8.102;2023-06-22T08:20:47;28.10;44.50
15574;DHT22;7888;46.748;8.102;2023-06-22T08:23:13;28.10;44.50
15574;DHT22;7888;46.748;8.102;2023-06-22T08:25:39;28.10;44.50
15574;DHT22;7888;46.748;8.102;2023-06-22T08:28:05;28.10;44.50
15574;DHT22;7888;46.748;8.102;2023-06-22T08:30:31;28.10;44.50
15574;DHT22;7888;46.748;8.102;2023-06-22T08:32:56;28.20;45.20
15574;DHT22;7888;46.748;8.102;2023-06-22T08:35:23;28.20;44.80
15574;DHT22;7888;46.748;8.102;2023-06-22T08:37:49;28.40;44.70
15574;DHT22;7888;46.748;8.102;2023-06-22T08:40:18;28.50;44.60
15574;DHT22;7888;46.748;8.102;2023-06-22T08:42:48;28.70;44.10
15574;DHT22;7888;46.748;8.102;2023-06-22T08:45:14;28.80;43.90
15574;DHT22;7888;46.748;8.102;2023-06-22T08:47:41;29.00;44.30
15574;DHT22;7888;46.748;8.102;2023-06-22T08:50:11;29.20;44.50
15574;DHT22;7888;46.748;8.102;2023-06-22T08:52:38;29.40;44.50
15574;DHT22;7888;46.748;8.102;2023-06-22T08:55:11;29.60;44.40
15574;DHT22;7888;46.748;8.102;2023-06-22T08:57:37;29.80;44.10
15574;DHT22;7888;46.748;8.102;2023-06-22T09:00:08;30.00;43.40
15574;DHT22;7888;46.748;8.102;2023-06-22T09:02:41;30.20;43.50
15574;DHT22;7888;46.748;8.102;2023-06-22T09:05:08;30.40;43.40
15574;DHT22;7888;46.748;8.102;2023-06-22T09:07:34;30.60;43.20
15574;DHT22;7888;46.748;8.102;2023-06-22T09:10:00;30.70;42.70
15574;DHT22;7888;46.748;8.102;2023-06-22T09:12:26;30.90;42.40
15574;DHT22;7888;46.748;8.102;2023-06-22T09:14:53;31.00;42.20
15574;DHT22;7888;46.748;8.102;2023-06-22T09:17:19;31.10;42.10
15574;DHT22;7888;46.748;8.102;2023-06-22T09:19:45;31.20;42.20
15574;DHT22;7888;46.748;8.102;2023-06-22T09:22:10;31.30;42.10
15574;DHT22;7888;46.748;8.102;2023-06-22T09:24:36;31.40;42.00
15574;DHT22;7888;46.748;8.102;2023-06-22T09:27:02;31.50;41.70
15574;DHT22;7888;46.748;8.102;2023-06-22T09:29:28;31.60;41.70
15574;DHT22;7888;46.748;8.102;2023-06-22T09:31:54;31.70;41.40
15574;DHT22;7888;46.748;8.102;2023-06-22T09:34:21;31.80;41.20
15574;DHT22;7888;46.748;8.102;2023-06-22T09:36:47;31.90;40.90
15574;DHT22;7888;46.748;8.102;2023-06-22T09:39:13;31.90;40.90
15574;DHT22;7888;46.748;8.102;2023-06-22T09:41:39;31.90;40.80
15574;DHT22;7888;46.748;8.102;2023-06-22T09:44:05;32.00;40.70
15574;DHT22;7888;46.748;8.102;2023-06-22T09:46:31;32.00;40.60
15574;DHT22;7888;46.748;8.102;2023-06-22T09:48:57;32.00;40.40
15574;DHT22;7888;46.748;8.102;2023-06-22T09:51:23;32.00;40.60
15574;DHT22;7888;46.748;8.102;2023-06-22T09:53:52;32.10;40.60
15574;DHT22;7888;46.748;8.102;2023-06-22T09:56:19;32.10;40.50
15574;DHT22;7888;46.748;8.102;2023-06-22T09:58:46;32.20;40.20
15574;DHT22;7888;46.748;8.102;2023-06-22T10:01:13;32.30;40.00
15574;DHT22;7888;46.748;8.102;2023-06-22T10:03:42;32.30;39.70
15574;DHT22;7888;46.748;8.102;2023-06-22T10:06:08;32.40;39.70
15574;DHT22;7888;46.748;8.102;2023-06-22T10:08:35;32.40;39.60
15574;DHT22;7888;46.748;8.102;2023-06-22T10:11:02;32.40;39.50
15574;DHT22;7888;46.748;8.102;2023-06-22T10:13:28;32.40;39.40
15574;DHT22;7888;46.748;8.102;2023-06-22T10:15:54;32.50;39.30
15574;DHT22;7888;46.748;8.102;2023-06-22T10:18:21;32.60;39.30
15574;DHT22;7888;46.748;8.102;2023-06-22T10:20:50;32.60;39.00
15574;DHT22;7888;46.748;8.102;2023-06-22T10:23:17;32.60;38.70
15574;DHT22;7888;46.748;8.102;2023-06-22T10:25:43;32.70;38.90
15574;DHT22;7888;46.748;8.102;2023-06-22T10:28:09;32.70;38.70
15574;DHT22;7888;46.748;8.102;2023-06-22T10:30:35;32.70;38.70
15574;DHT22;7888;46.748;8.102;2023-06-22T10:33:00;32.70;38.50
15574;DHT22;7888;46.748;8.102;2023-06-22T10:35:26;32.70;38.60
15574;DHT22;7888;46.748;8.102;2023-06-22T10:37:52;32.80;38.30
15574;DHT22;7888;46.748;8.102;2023-06-22T10:40:19;32.90;38.20
15574;DHT22;7888;46.748;8.102;2023-06-22T10:42:45;32.90;37.80
15574;DHT22;7888;46.748;8.102;2023-06-22T10:45:12;33.00;37.50
15574;DHT22;7888;46.748;8.102;2023-06-22T10:47:37;33.10;37.30
15574;DHT22;7888;46.748;8.102;2023-06-22T10:50:04;33.10;37.30
15574;DHT22;7888;46.748;8.102;2023-06-22T10:52:30;33.10;37.20
15574;DHT22;7888;46.748;8.102;2023-06-22T10:54:56;33.10;37.50
15574;DHT22;7888;46.748;8.102;2023-06-22T10:57:22;33.10;37.20
15574;DHT22;7888;46.748;8.102;2023-06-22T10:59:48;33.10;37.10
15574;DHT22;7888;46.748;8.102;2023-06-22T11:02:14;33.10;37.10
15574;DHT22;7888;46.748;8.102;2023-06-22T11:04:40;33.10;37.10
15574;DHT22;7888;46.748;8.102;2023-06-22T11:07:06;33.10;37.60
15574;DHT22;7888;46.748;8.102;2023-06-22T11:09:31;33.10;37.90
15574;DHT22;7888;46.748;8.102;2023-06-22T11:11:57;33.00;37.70
15574;DHT22;7888;46.748;8.102;2023-06-22T11:14:24;33.00;38.00
15574;DHT22;7888;46.748;8.102;2023-06-22T11:16:51;33.00;38.00
15574;DHT22;7888;46.748;8.102;2023-06-22T11:19:17;32.90;37.80
15574;DHT22;7888;46.748;8.102;2023-06-22T11:21:43;32.90;37.70
15574;DHT22;7888;46.748;8.102;2023-06-22T11:24:09;32.90;37.40
15574;DHT22;7888;46.748;8.102;2023-06-22T11:26:35;32.80;37.60
15574;DHT22;7888;46.748;8.102;2023-06-22T11:29:01;32.80;37.50
15574;DHT22;7888;46.748;8.102;2023-06-22T11:31:31;32.80;37.40
15574;DHT22;7888;46.748;8.102;2023-06-22T11:33:57;32.80;38.00
15574;DHT22;7888;46.748;8.102;2023-06-22T11:36:24;32.80;38.20
15574;DHT22;7888;46.748;8.102;2023-06-22T11:38:50;32.90;38.40
15574;DHT22;7888;46.748;8.102;2023-06-22T11:41:17;32.80;38.40
15574;DHT22;7888;46.748;8.102;2023-06-22T11:43:43;32.90;38.40
15574;DHT22;7888;46.748;8.102;2023-06-22T11:46:10;32.90;38.20
15574;DHT22;7888;46.748;8.102;2023-06-22T11:48:36;32.90;38.20
15574;DHT22;7888;46.748;8.102;2023-06-22T11:51:02;32.80;37.90
15574;DHT22;7888;46.748;8.102;2023-06-22T11:53:29;32.80;38.00
15574;DHT22;7888;46.748;8.102;2023-06-22T11:55:55;32.70;37.90
15574;DHT22;7888;46.748;8.102;2023-06-22T11:58:22;32.70;38.10
15574;DHT22;7888;46.748;8.102;2023-06-22T12:00:48;32.70;38.30
15574;DHT22;7888;46.748;8.102;2023-06-22T12:03:15;32.70;38.60
15574;DHT22;7888;46.748;8.102;2023-06-22T12:05:42;32.70;38.50
15574;DHT22;7888;46.748;8.102;2023-06-22T12:08:08;32.70;38.00
15574;DHT22;7888;46.748;8.102;2023-06-22T12:10:34;32.60;38.00
15574;DHT22;7888;46.748;8.102;2023-06-22T12:13:00;32.60;38.00
15574;DHT22;7888;46.748;8.102;2023-06-22T12:15:26;32.60;38.10
15574;DHT22;7888;46.748;8.102;2023-06-22T12:17:52;32.60;37.90
15574;DHT22;7888;46.748;8.102;2023-06-22T12:20:18;32.60;38.00
15574;DHT22;7888;46.748;8.102;2023-06-22T12:22:45;32.60;38.50
15574;DHT22;7888;46.748;8.102;2023-06-22T12:25:11;32.60;37.80
15574;DHT22;7888;46.748;8.102;2023-06-22T12:27:37;32.60;37.70
15574;DHT22;7888;46.748;8.102;2023-06-22T12:30:04;32.60;37.60
15574;DHT22;7888;46.748;8.102;2023-06-22T12:32:30;32.60;37.70
15574;DHT22;7888;46.748;8.102;2023-06-22T12:34:57;32.60;37.70
15574;DHT22;7888;46.748;8.102;2023-06-22T12:37:23;32.60;37.50
15574;DHT22;7888;46.748;8.102;2023-06-22T12:39:49;32.60;37.50
15574;DHT22;7888;46.748;8.102;2023-06-22T12:42:16;32.70;37.50
15574;DHT22;7888;46.748;8.102;2023-06-22T12:44:42;32.70;37.50
15574;DHT22;7888;46.748;8.102;2023-06-22T12:47:09;32.70;37.50
15574;DHT22;7888;46.748;8.102;2023-06-22T12:49:35;32.70;37.60
15574;DHT22;7888;46.748;8.102;2023-06-22T12:52:02;32.70;37.70
15574;DHT22;7888;46.748;8.102;2023-06-22T12:54:28;32.70;37.70
15574;DHT22;7888;46.748;8.102;2023-06-22T12:56:55;32.60;37.80
15574;DHT22;7888;46.748;8.102;2023-06-22T12:59:21;32.60;37.90
15574;DHT22;7888;46.748;8.102;2023-06-22T13:01:47;32.60;37.90
15574;DHT22;7888;46.748;8.102;2023-06-22T13:04:13;32.50;37.90
15574;DHT22;7888;46.748;8.102;2023-06-22T13:06:44;32.50;38.00
15574;DHT22;7888;46.748;8.102;2023-06-22T13:09:14;32.40;37.90
15574;DHT22;7888;46.748;8.102;2023-06-22T13:11:41;32.40;38.00
15574;DHT22;7888;46.748;8.102;2023-06-22T13:14:07;32.40;38.00
15574;DHT22;7888;46.748;8.102;2023-06-22T13:16:33;32.30;38.00
15574;DHT22;7888;46.748;8.102;2023-06-22T13:18:59;32.20;38.00
15574;DHT22;7888;46.748;8.102;2023-06-22T13:21:25;32.10;37.90
15574;DHT22;7888;46.748;8.102;2023-06-22T13:23:51;31.90;37.90
15574;DHT22;7888;46.748;8.102;2023-06-22T13:26:16;31.80;38.00
15574;DHT22;7888;46.748;8.102;2023-06-22T13:28:42;31.70;38.40
15574;DHT22;7888;46.748;8.102;2023-06-22T13:31:08;31.50;38.40
15574;DHT22;7888;46.748;8.102;2023-06-22T13:33:34;31.30;39.10
15574;DHT22;7888;46.748;8.102;2023-06-22T13:36:00;31.20;39.60
15574;DHT22;7888;46.748;8.102;2023-06-22T13:38:25;31.00;39.90
15574;DHT22;7888;46.748;8.102;2023-06-22T13:40:52;30.90;40.90
15574;DHT22;7888;46.748;8.102;2023-06-22T13:43:18;30.80;40.70
15574;DHT22;7888;46.748;8.102;2023-06-22T13:45:44;30.70;40.90
15574;DHT22;7888;46.748;8.102;2023-06-22T13:48:10;30.70;41.80
15574;DHT22;7888;46.748;8.102;2023-06-22T13:50:36;30.60;42.50
15574;DHT22;7888;46.748;8.102;2023-06-22T13:53:02;30.60;43.00
15574;DHT22;7888;46.748;8.102;2023-06-22T13:55:27;30.60;43.30
15574;DHT22;7888;46.748;8.102;2023-06-22T13:57:53;30.60;43.80
15574;DHT22;7888;46.748;8.102;2023-06-22T14:00:19;30.60;44.10
15574;DHT22;7888;46.748;8.102;2023-06-22T14:02:45;30.70;44.20
15574;DHT22;7888;46.748;8.102;2023-06-22T14:05:11;30.70;43.70
15574;DHT22;7888;46.748;8.102;2023-06-22T14:07:37;30.80;44.20
15574;DHT22;7888;46.748;8.102;2023-06-22T14:10:03;30.80;44.00
15574;DHT22;7888;46.748;8.102;2023-06-22T14:12:30;30.80;44.00
15574;DHT22;7888;46.748;8.102;2023-06-22T14:14:55;30.80;44.10
15574;DHT22;7888;46.748;8.102;2023-06-22T14:17:22;30.80;43.80
15574;DHT22;7888;46.748;8.102;2023-06-22T14:19:51;30.80;44.00
15574;DHT22;7888;46.748;8.102;2023-06-22T14:22:22;30.80;44.80
15574;DHT22;7888;46.748;8.102;2023-06-22T14:24:48;30.80;44.30
15574;DHT22;7888;46.748;8.102;2023-06-22T14:27:15;30.70;44.40
15574;DHT22;7888;46.748;8.102;2023-06-22T14:29:41;30.70;44.40
15574;DHT22;7888;46.748;8.102;2023-06-22T14:32:07;30.60;44.20
15574;DHT22;7888;46.748;8.102;2023-06-22T14:34:34;30.60;44.60
15574;DHT22;7888;46.748;8.102;2023-06-22T14:37:07;30.50;44.40
15574;DHT22;7888;46.748;8.102;2023-06-22T14:39:35;30.40;44.10
15574;DHT22;7888;46.748;8.102;2023-06-22T14:42:01;30.30;44.20
15574;DHT22;7888;46.748;8.102;2023-06-22T14:44:29;30.20;44.50
15574;DHT22;7888;46.748;8.102;2023-06-22T14:46:58;30.10;44.70
15574;DHT22;7888;46.748;8.102;2023-06-22T14:49:23;30.00;44.50
15574;DHT22;7888;46.748;8.102;2023-06-22T14:51:50;29.90;44.40
15574;DHT22;7888;46.748;8.102;2023-06-22T14:54:16;29.70;44.90
15574;DHT22;7888;46.748;8.102;2023-06-22T14:56:41;29.50;44.70
15574;DHT22;7888;46.748;8.102;2023-06-22T14:59:08;29.40;45.00
15574;DHT22;7888;46.748;8.102;2023-06-22T15:01:35;29.30;45.50
15574;DHT22;7888;46.748;8.102;2023-06-22T15:04:00;29.10;45.60
15574;DHT22;7888;46.748;8.102;2023-06-22T15:06:26;29.00;45.80
15574;DHT22;7888;46.748;8.102;2023-06-22T15:08:53;28.90;45.90
15574;DHT22;7888;46.748;8.102;2023-06-22T15:11:19;28.70;46.00
15574;DHT22;7888;46.748;8.102;2023-06-22T15:13:45;28.70;46.20
15574;DHT22;7888;46.748;8.102;2023-06-22T15:16:11;28.60;46.30
15574;DHT22;7888;46.748;8.102;2023-06-22T15:18:36;28.50;46.40
15574;DHT22;7888;46.748;8.102;2023-06-22T15:21:03;28.40;46.70
15574;DHT22;7888;46.748;8.102;2023-06-22T15:23:30;28.30;46.70
15574;DHT22;7888;46.748;8.102;2023-06-22T15:25:57;28.30;46.90
15574;DHT22;7888;46.748;8.102;2023-06-22T15:28:24;28.20;47.00
15574;DHT22;7888;46.748;8.102;2023-06-22T15:30:51;28.20;47.10
15574;DHT22;7888;46.748;8.102;2023-06-22T15:33:17;28.10;47.00
15574;DHT22;7888;46.748;8.102;2023-06-22T15:35:43;28.00;47.10
15574;DHT22;7888;46.748;8.102;2023-06-22T15:38:10;27.90;46.40
15574;DHT22;7888;46.748;8.102;2023-06-22T15:40:36;27.70;46.10
15574;DHT22;7888;46.748;8.102;2023-06-22T15:43:02;27.50;46.20
15574;DHT22;7888;46.748;8.102;2023-06-22T15:45:28;27.30;45.90
15574;DHT22;7888;46.748;8.102;2023-06-22T15:47:54;27.00;46.40